createdAt,value
2018-11-05T00:03:29.428Z,78.80
2018-11-05T00:07:36.149Z,78.75
2018-11-05T00:11:42.799Z,79.06
2018-11-05T00:15:49.579Z,78.99
2018-11-05T00:19:56.290Z,78.67
2018-11-05T00:24:03.192Z,78.69
2018-11-05T00:28:09.896Z,78.60
2018-11-05T00:32:16.833Z,78.93
2018-11-05T00:36:23.772Z,79.05
2018-11-05T00:40:30.676Z,79.53
2018-11-05T00:44:37.512Z,79.40
2018-11-05T00:48:44.247Z,79.11
2018-11-05T00:52:50.960Z,79.19
2018-11-05T00:56:57.657Z,79.21
2018-11-05T01:01:04.521Z,79.44
2018-11-05T01:05:12.701Z,79.60
2018-11-05T01:09:19.381Z,79.74
2018-11-05T01:13:25.990Z,79.71
2018-11-05T01:17:32.694Z,79.80
2018-11-05T01:21:39.375Z,79.91
2018-11-05T01:25:46.123Z,79.98
2018-11-05T01:29:52.803Z,79.80
2018-11-05T01:33:59.440Z,79.58
2018-11-05T01:38:06.134Z,79.66
2018-11-05T01:42:12.999Z,79.83
2018-11-05T01:46:19.667Z,80.00
2018-11-05T01:50:26.412Z,80.03
2018-11-05T01:54:33.078Z,80.00
2018-11-05T01:58:39.787Z,79.84
2018-11-05T02:02:47.357Z,79.87
2018-11-05T02:06:54.071Z,79.79
2018-11-05T02:11:00.790Z,79.83
2018-11-05T02:15:08.265Z,79.94
2018-11-05T02:19:14.970Z,80.44
2018-11-05T02:23:21.711Z,80.15
2018-11-05T02:27:28.841Z,80.01
2018-11-05T02:31:35.510Z,80.27
2018-11-05T02:35:42.187Z,80.16
2018-11-05T02:39:48.967Z,80.30
2018-11-05T02:43:55.678Z,80.57
2018-11-05T02:48:02.376Z,80.39
2018-11-05T02:52:09.174Z,80.40
2018-11-05T02:56:15.764Z,80.33
2018-11-05T03:00:22.471Z,80.13
2018-11-05T03:04:29.216Z,80.09
2018-11-05T03:08:35.924Z,80.02
2018-11-05T03:12:43.373Z,80.16
2018-11-05T03:16:49.967Z,80.32
2018-11-05T03:20:56.662Z,80.27
2018-11-05T03:25:03.454Z,80.62
2018-11-05T03:29:10.225Z,80.91
2018-11-05T03:33:16.815Z,81.02
2018-11-05T03:37:23.499Z,80.90
2018-11-05T03:41:30.155Z,81.02
2018-11-05T03:45:36.956Z,81.51
2018-11-05T03:49:43.546Z,81.38
2018-11-05T03:53:50.228Z,81.20
2018-11-05T03:57:57.089Z,81.29
2018-11-05T04:02:03.849Z,81.13
2018-11-05T04:06:10.634Z,81.34
2018-11-05T04:10:17.302Z,81.58
2018-11-05T04:14:24.011Z,81.56
2018-11-05T04:18:30.857Z,81.52
2018-11-05T04:22:37.576Z,81.78
2018-11-05T04:26:45.753Z,81.57
2018-11-05T04:30:52.464Z,81.38
2018-11-05T04:34:59.203Z,81.09
2018-11-05T04:39:09.345Z,81.02
2018-11-05T04:43:15.977Z,81.12
2018-11-05T04:47:22.714Z,81.16
2018-11-05T04:51:29.539Z,81.54
2018-11-05T04:55:36.217Z,81.33
2018-11-05T04:59:43.000Z,81.57
2018-11-05T05:03:49.703Z,81.85
2018-11-05T05:07:56.405Z,81.46
2018-11-05T05:12:03.189Z,81.72
2018-11-05T05:16:10.075Z,81.56
2018-11-05T05:20:17.502Z,81.52
2018-11-05T05:24:24.297Z,81.38
2018-11-05T05:28:30.993Z,81.44
2018-11-05T05:32:37.750Z,81.81
2018-11-05T05:36:44.490Z,82.01
2018-11-05T05:40:52.419Z,81.65
2018-11-05T05:44:59.189Z,81.65
2018-11-05T05:49:06.234Z,81.97
2018-11-05T05:53:13.041Z,81.47
2018-11-05T05:57:19.686Z,82.52
2018-11-05T06:01:26.419Z,81.95
2018-11-05T06:05:33.194Z,81.73
2018-11-05T06:09:40.013Z,81.61
2018-11-05T06:13:46.673Z,81.65
2018-11-05T06:17:53.443Z,81.08
2018-11-05T06:22:00.413Z,81.41
2018-11-05T06:26:07.391Z,81.22
2018-11-05T06:30:24.655Z,81.05
2018-11-05T06:34:31.365Z,80.90
2018-11-05T06:38:38.093Z,80.86
2018-11-05T06:42:45.160Z,81.68
2018-11-05T06:46:51.843Z,81.14
2018-11-05T06:50:58.592Z,81.73
2018-11-05T06:55:05.741Z,80.24
2018-11-05T06:59:12.448Z,80.70
2018-11-05T07:03:21.678Z,79.61
2018-11-05T07:07:28.393Z,79.40
2018-11-05T07:11:35.188Z,79.42
2018-11-05T07:15:41.874Z,80.43
2018-11-05T07:19:48.598Z,80.43
2018-11-05T07:23:55.322Z,80.66
2018-11-05T07:28:02.071Z,80.31
2018-11-05T07:32:08.852Z,80.31
2018-11-05T07:36:15.490Z,80.38
2018-11-05T07:40:22.246Z,79.79
2018-11-05T07:44:28.963Z,80.07
2018-11-05T07:48:35.707Z,79.56
2018-11-05T07:52:42.387Z,79.93
2018-11-05T07:56:49.321Z,79.62
2018-11-05T08:00:57.034Z,80.16
2018-11-05T08:05:03.706Z,79.60
2018-11-05T08:09:12.436Z,79.96
2018-11-05T08:13:19.164Z,79.81
2018-11-05T08:17:25.908Z,79.45
2018-11-05T08:21:32.631Z,78.96
2018-11-05T08:25:39.364Z,78.82
2018-11-05T08:29:46.093Z,78.09
2018-11-05T08:33:52.961Z,78.37
2018-11-05T08:37:59.730Z,77.88
2018-11-05T08:42:06.654Z,77.61
2018-11-05T08:46:13.454Z,77.20
2018-11-05T08:50:21.534Z,77.49
2018-11-05T08:54:28.142Z,76.60
2018-11-05T08:58:34.920Z,76.59
2018-11-05T09:02:41.659Z,76.87
2018-11-05T09:06:48.421Z,76.27
2018-11-05T09:10:56.503Z,76.34
2018-11-05T09:15:02.752Z,76.12
2018-11-05T09:19:09.550Z,75.85
2018-11-05T09:23:16.530Z,76.06
2018-11-05T09:27:23.314Z,75.99
2018-11-05T09:31:30.300Z,75.73
2018-11-05T09:35:37.139Z,76.45
2018-11-05T09:39:43.913Z,75.58
2018-11-05T09:43:50.902Z,75.42
2018-11-05T09:47:57.752Z,74.80
2018-11-05T09:52:04.388Z,75.05
2018-11-05T09:56:11.140Z,74.05
2018-11-05T10:00:22.773Z,74.08
2018-11-05T10:04:29.683Z,74.22
2018-11-05T10:08:36.284Z,74.01
2018-11-05T10:12:43.345Z,74.11
2018-11-05T10:16:50.141Z,74.57
2018-11-05T10:20:57.714Z,73.70
2018-11-05T10:25:04.693Z,73.00
2018-11-05T10:29:11.332Z,73.10
2018-11-05T10:33:18.192Z,72.88
2018-11-05T10:37:24.912Z,72.93
2018-11-05T10:41:31.710Z,72.80
2018-11-05T10:45:38.494Z,71.81
2018-11-05T10:49:45.188Z,72.07
2018-11-05T10:53:51.898Z,72.03
2018-11-05T10:57:58.632Z,70.54
2018-11-05T11:02:22.882Z,70.66
2018-11-05T11:06:29.718Z,68.81
2018-11-05T11:10:36.329Z,68.63
2018-11-05T11:14:43.072Z,69.05
2018-11-05T11:18:49.791Z,68.63
2018-11-05T11:22:56.517Z,69.02
2018-11-05T11:27:03.211Z,68.22
2018-11-05T11:31:09.986Z,67.77
2018-11-05T11:35:16.875Z,67.19
2018-11-05T11:39:23.585Z,66.71
2018-11-05T11:43:30.284Z,66.43
2018-11-05T11:47:37.015Z,64.54
2018-11-05T11:51:43.745Z,64.18
2018-11-05T11:55:50.631Z,64.30
2018-11-05T11:59:57.430Z,64.05
2018-11-05T12:04:04.168Z,64.15
2018-11-05T12:08:10.987Z,63.34
2018-11-05T12:12:17.628Z,63.25
2018-11-05T12:16:24.352Z,62.39
2018-11-05T12:20:31.177Z,61.38
2018-11-05T12:24:37.878Z,61.67
2018-11-05T12:28:44.577Z,60.40
2018-11-05T12:32:52.444Z,58.86
2018-11-05T12:36:59.195Z,61.53
2018-11-05T12:41:05.887Z,61.38
2018-11-05T12:45:12.597Z,61.02
2018-11-05T12:49:19.348Z,62.17
2018-11-05T12:53:26.138Z,61.81
2018-11-05T12:57:32.842Z,63.90
2018-11-05T13:01:39.570Z,63.11
2018-11-05T13:05:46.430Z,64.52
2018-11-05T13:09:53.125Z,64.16
2018-11-05T13:13:59.827Z,65.29
2018-11-05T13:18:06.601Z,65.75
2018-11-05T13:26:20.050Z,65.44
2018-11-05T13:30:26.854Z,65.58
2018-11-05T13:34:33.607Z,66.20
2018-11-05T13:38:40.360Z,65.89
2018-11-05T13:42:47.460Z,65.51
2018-11-05T13:46:54.672Z,64.12
2018-11-05T13:51:01.260Z,64.09
2018-11-05T13:55:09.652Z,64.15
2018-11-05T13:59:16.391Z,63.31
2018-11-05T14:03:23.161Z,64.49
2018-11-05T14:07:29.901Z,64.38
2018-11-05T14:11:36.624Z,63.48
2018-11-05T14:15:44.192Z,64.38
2018-11-05T14:19:50.959Z,63.61
2018-11-05T14:23:57.731Z,63.48
2018-11-05T14:28:04.753Z,63.52
2018-11-05T14:32:11.196Z,63.83
2018-11-05T14:36:17.842Z,63.71
2018-11-05T14:40:24.547Z,63.87
2018-11-05T14:44:31.329Z,64.42
2018-11-05T14:48:38.096Z,63.88
2018-11-05T14:52:44.853Z,64.49
2018-11-05T14:56:51.475Z,65.06
2018-11-05T15:00:58.166Z,65.34
2018-11-05T15:05:04.891Z,66.07
2018-11-05T15:09:13.527Z,65.65
2018-11-05T15:13:20.367Z,66.42
2018-11-05T15:17:27.181Z,66.56
2018-11-05T15:21:33.926Z,67.09
2018-11-05T15:25:40.796Z,66.86
2018-11-05T15:29:47.446Z,66.93
2018-11-05T15:33:54.286Z,67.33
2018-11-05T15:38:00.981Z,67.48
2018-11-05T15:42:08.268Z,68.77
2018-11-05T15:46:14.995Z,67.81
2018-11-05T15:50:22.371Z,68.11
2018-11-05T15:54:29.395Z,67.94
2018-11-05T15:58:36.081Z,69.08
2018-11-05T16:02:42.862Z,68.32
2018-11-05T16:06:49.613Z,68.82
2018-11-05T16:10:56.491Z,69.18
2018-11-05T16:15:03.817Z,69.51
2018-11-05T16:19:10.509Z,69.79
2018-11-05T16:23:17.252Z,69.58
2018-11-05T16:27:23.969Z,70.00
2018-11-05T16:31:31.276Z,70.82
2018-11-05T16:35:38.118Z,71.16
2018-11-05T16:39:44.912Z,71.22
2018-11-05T16:43:51.638Z,71.46
2018-11-05T16:47:58.554Z,71.09
2018-11-05T16:52:05.326Z,71.59
2018-11-05T16:56:12.080Z,71.84
2018-11-05T17:00:18.989Z,71.84
2018-11-05T17:04:25.742Z,71.82
2018-11-05T17:08:32.474Z,71.84
2018-11-05T17:12:39.203Z,72.23
2018-11-05T17:16:45.951Z,72.04
2018-11-05T17:20:52.779Z,71.84
2018-11-05T17:24:59.678Z,71.92
2018-11-05T17:29:06.411Z,72.16
2018-11-05T17:33:13.165Z,72.18
2018-11-05T17:37:19.940Z,72.74
2018-11-05T17:41:26.678Z,72.94
2018-11-05T17:45:33.473Z,72.91
2018-11-05T17:49:40.252Z,72.52
2018-11-05T17:53:47.209Z,72.96
2018-11-05T17:57:54.028Z,73.35
2018-11-05T18:02:00.693Z,73.41
2018-11-05T18:06:07.491Z,73.54
2018-11-05T18:10:14.235Z,73.57
2018-11-05T18:14:24.683Z,73.41
2018-11-05T18:18:34.748Z,73.40
2018-11-05T18:22:41.569Z,74.25
2018-11-05T18:26:48.471Z,74.32
2018-11-05T18:30:55.339Z,74.64
2018-11-05T18:35:02.153Z,74.87
2018-11-05T18:39:11.599Z,75.61
2018-11-05T18:43:18.442Z,75.91
2018-11-05T18:47:25.365Z,76.03
2018-11-05T18:51:32.312Z,76.47
2018-11-05T18:55:39.200Z,76.98
2018-11-05T18:59:46.028Z,76.74
2018-11-05T19:03:53.069Z,77.03
2018-11-05T19:07:59.987Z,77.40
2018-11-05T19:12:06.779Z,77.69
2018-11-05T19:16:13.670Z,78.04
2018-11-05T19:20:20.506Z,78.11
2018-11-05T19:24:27.699Z,78.39
2018-11-05T19:28:34.886Z,78.33
2018-11-05T19:32:41.656Z,78.37
2018-11-05T19:36:48.424Z,78.71
2018-11-05T19:40:55.220Z,79.51
2018-11-05T19:45:02.108Z,79.36
2018-11-05T19:49:08.748Z,79.51
2018-11-05T19:53:15.486Z,79.67
2018-11-05T19:57:22.206Z,80.35
2018-11-05T20:01:29.058Z,80.05
2018-11-05T20:05:36.951Z,81.41
2018-11-05T20:09:43.761Z,81.02
2018-11-05T20:13:51.335Z,81.49
2018-11-05T20:18:04.383Z,82.53
2018-11-05T20:22:19.717Z,82.16
2018-11-05T20:26:29.435Z,83.01
2018-11-05T20:30:38.966Z,82.83
2018-11-05T20:34:44.232Z,83.47
2018-11-05T20:38:51.281Z,84.57
2018-11-05T20:42:58.177Z,83.96
2018-11-05T20:47:04.945Z,84.66
2018-11-05T20:51:11.774Z,85.32
2018-11-05T20:55:19.136Z,85.12
2018-11-05T20:59:25.875Z,85.98
2018-11-05T21:03:32.793Z,85.87
2018-11-05T21:07:40.601Z,86.37
2018-11-05T21:11:47.867Z,87.34
2018-11-05T21:15:57.347Z,86.85
2018-11-05T21:20:04.121Z,86.75
2018-11-05T21:24:10.836Z,86.88
2018-11-05T21:28:17.757Z,86.43
2018-11-05T21:32:26.226Z,86.84
2018-11-05T21:36:33.035Z,87.44
2018-11-05T21:40:40.056Z,86.86
2018-11-05T21:44:51.465Z,87.07
2018-11-05T21:48:58.102Z,87.33
2018-11-05T21:53:04.826Z,87.35
2018-11-05T21:57:11.587Z,87.29
2018-11-05T22:01:18.395Z,87.72
2018-11-05T22:05:25.006Z,88.32
2018-11-05T22:09:31.737Z,88.34
2018-11-05T22:13:38.467Z,88.36
2018-11-05T22:17:46.338Z,88.77
2018-11-05T22:21:53.053Z,88.44
2018-11-05T22:25:59.815Z,88.23
2018-11-05T22:30:08.324Z,88.03
2018-11-05T22:34:15.032Z,88.09
2018-11-05T22:38:21.744Z,87.84
2018-11-05T22:42:28.521Z,88.01
2018-11-05T22:46:35.244Z,88.13
2018-11-05T22:50:42.091Z,88.46
2018-11-05T22:54:48.867Z,88.21
2018-11-05T22:58:55.680Z,88.21
2018-11-05T23:03:19.873Z,88.06
2018-11-05T23:07:29.140Z,88.45
2018-11-05T23:11:35.843Z,88.05
2018-11-05T23:15:42.577Z,87.74
2018-11-05T23:19:49.308Z,87.92
2018-11-05T23:23:56.025Z,87.90
2018-11-05T23:28:02.788Z,88.37
2018-11-05T23:32:09.562Z,88.72
2018-11-05T23:36:16.297Z,88.75
2018-11-05T23:40:23.008Z,88.71
2018-11-05T23:44:29.774Z,89.53
2018-11-05T23:48:36.420Z,89.06
2018-11-05T23:52:43.179Z,88.87
2018-11-05T23:56:49.873Z,88.52
